Aérodrome :
LOGIN :

S'inscrire | Disclaimer

   EN    FR    IT 

 










Légende :    VFR   VFR Marginal   IFR   IFR Intensif   IFR Très Intensif
Visi : 
Plafond : 
>= 8 km
>= 3000ft
5 à 8 km
1000 à 3000 ft
1500m à 5 km
500 à 1000 ft
800 à 1500m
200 à 500 ft
< 800m
< 200 ft
Symboles :   Orages  Brouillard  Fortes neiges  Fortes précipitations  Vent > 20 kt
SIGMETs :   Divers  Orages  Givrage  Turbulence  Onde Orograph.  Cendres Volcan.






- Altitude de l'aérodrome : 913 ft


LFSX - Luxeuil

DERNIER METAR :
  • 232000Z AUTO 09004KT CAVOK 22/17 Q1010

METARs EXPIRÉS :
  • 231930Z AUTO 12005KT CAVOK 22/18 Q1010
  • 231900Z AUTO 09005KT CAVOK 24/18 Q1010
  • 231830Z AUTO 13005KT CAVOK 25/16 Q1010
  • 231800Z AUTO 12005KT CAVOK 26/16 Q1011
  • 231730Z AUTO 12007KT CAVOK 27/16 Q1011

TAF TAF LFSX
Valide du 23 à 15h jusqu'au 24 à 15h UTC


231400Z 2315/2415 11005KT CAVOK
TEMPO 2322/2415 4000 SHRA BKN080TCU
TEMPO 2323/2415 VRB15G30KT 2500 TSRA BKN070CB
PROB40
TEMPO 2323/2415 VRB20G35KT 1500 TSGR FEW005 BKN060CB



MET'MAP, la Météo Aéronautique d'un coup d'oeil ! - Copyright ORBIFLY Décembre 2007 - Disclaimer

ORBIFLY MET'MAP TEAM :

Programmation & Développement : Alexandra Zaïnal
Sur une idée originale de : Baudouin d'Aumeries
Assistance à la programmation : Marc-Olivier Méhu
Soutien technique & logistique : Manuel Goepfert

Contact : metmap@orbifly.com




SOURCES & CREDITS :

   NOAA